Terminal Aerodrome Forecast
Issued by NWS Tuscon, AZ

Home | Current Version | Previous Version | Text Only | Print | Product List | Glossary On
Versions: 1 2 3 4 5 6 7 8 9 10 11 12
000
FTUS45 KTWC 012300
TAFTUS
TAF
KTUS 012320Z 0200/0224 32009KT P6SM SKC
     FM020200 24005KT P6SM SKC
     FM020700 14007KT P6SM SKC
     FM022000 29008KT P6SM FEW100=

USA.gov is the U.S. government's official web portal to all federal, state and local government web resources and services.